Eastern Wv Regional Shepherd Field Martinsburg US
ICAO: KMRB
IATA: MRB
Category: Medium
Scheduled Services: No

Elevation: 565 ft
TransAlt. 18000 ft.

Airport Communications:
POTOMAC APP/DEP:126.1
ASOS:119.925
POTOMAC CLNC DEL:132.075
CTAF:124.3
GND:121.8
PIKESIDE CON ANG:29.7
ELKINS RDO:122.45
MARTINSBURG TWR:124.3
UNICOM:122.95

KMRB Zoom In..

If you have problems with the map follow the link
https://www.worldairports.se/pages/airport.php?
ICAO=KMRB

Runways:

(A) RW 08 length 8815 ft width 150 ft
---- / hdg 79

(B) RW 26 length 8815 ft width 150 ft
ILS 108.30 / hdg 259

Location; KMRB
Day. 21 / Time. 05.53 Zulu
* Altimeter: 29.79
* Temperature: 08° c. 46.4°f.
* Wind from: 280° Speed 18 kn with Gusts up to 23 kn.
Dewpoint: 01° c.
Visibility: 10 Statute Miles.
Clouds: Clear (automated report).

KMRB 210553Z AUTO 28018G23KT 10SM CLR 08/01 A2979 RMK AO2 PK WND 27027/0529 SLP086 60006 T00780011 10139 20078 50009


Wind From 280°
Speed 18 kn.

 
 
jpsmedia.com for Web Design worldairports.se 2018   terms of use